sensor_id;sensor_type;location;lat;lon;timestamp;P1;durP1;ratioP1;P2;durP2;ratioP2
59024;SDS011;44806;48.008;13.666;2022-12-18T00:01:14;33.03;;;13.93;;
59024;SDS011;44806;48.008;13.666;2022-12-18T00:03:53;29.00;;;12.82;;
59024;SDS011;44806;48.008;13.666;2022-12-18T00:06:36;33.58;;;13.27;;
59024;SDS011;44806;48.008;13.666;2022-12-18T00:09:08;33.60;;;12.55;;
59024;SDS011;44806;48.008;13.666;2022-12-18T00:11:45;37.25;;;14.00;;
59024;SDS011;44806;48.008;13.666;2022-12-18T00:14:21;37.38;;;13.82;;
59024;SDS011;44806;48.008;13.666;2022-12-18T00:16:56;32.88;;;13.55;;
59024;SDS011;44806;48.008;13.666;2022-12-18T00:19:26;31.70;;;13.35;;
59024;SDS011;44806;48.008;13.666;2022-12-18T00:22:04;31.30;;;16.30;;
59024;SDS011;44806;48.008;13.666;2022-12-18T00:24:33;30.55;;;13.80;;
59024;SDS011;44806;48.008;13.666;2022-12-18T00:27:09;29.05;;;12.48;;
59024;SDS011;44806;48.008;13.666;2022-12-18T00:29:54;31.10;;;12.90;;
59024;SDS011;44806;48.008;13.666;2022-12-18T00:32:26;26.67;;;11.32;;
59024;SDS011;44806;48.008;13.666;2022-12-18T00:37:34;34.42;;;13.23;;
59024;SDS011;44806;48.008;13.666;2022-12-18T00:40:15;25.45;;;12.07;;
59024;SDS011;44806;48.008;13.666;2022-12-18T00:42:46;25.70;;;10.35;;
59024;SDS011;44806;48.008;13.666;2022-12-18T00:45:22;28.10;;;13.45;;
59024;SDS011;44806;48.008;13.666;2022-12-18T00:48:06;27.05;;;11.93;;
59024;SDS011;44806;48.008;13.666;2022-12-18T00:50:34;31.65;;;13.90;;
59024;SDS011;44806;48.008;13.666;2022-12-18T00:53:12;35.85;;;12.70;;
59024;SDS011;44806;48.008;13.666;2022-12-18T00:55:46;18.48;;;9.80;;
59024;SDS011;44806;48.008;13.666;2022-12-18T00:58:23;40.85;;;16.48;;
59024;SDS011;44806;48.008;13.666;2022-12-18T01:01:05;24.70;;;10.27;;
59024;SDS011;44806;48.008;13.666;2022-12-18T01:03:38;35.67;;;15.50;;
59024;SDS011;44806;48.008;13.666;2022-12-18T01:06:13;29.75;;;13.50;;
59024;SDS011;44806;48.008;13.666;2022-12-18T01:08:57;29.25;;;12.73;;
59024;SDS011;44806;48.008;13.666;2022-12-18T01:11:35;37.97;;;15.02;;
59024;SDS011;44806;48.008;13.666;2022-12-18T01:14:09;36.88;;;16.75;;
59024;SDS011;44806;48.008;13.666;2022-12-18T01:16:45;33.85;;;15.68;;
59024;SDS011;44806;48.008;13.666;2022-12-18T01:19:19;40.05;;;17.13;;
59024;SDS011;44806;48.008;13.666;2022-12-18T01:21:55;31.45;;;12.73;;
59024;SDS011;44806;48.008;13.666;2022-12-18T01:24:32;29.27;;;14.20;;
59024;SDS011;44806;48.008;13.666;2022-12-18T01:27:16;35.33;;;14.63;;
59024;SDS011;44806;48.008;13.666;2022-12-18T01:29:53;40.55;;;15.18;;
59024;SDS011;44806;48.008;13.666;2022-12-18T01:32:30;33.85;;;11.77;;
59024;SDS011;44806;48.008;13.666;2022-12-18T01:35:05;38.38;;;16.10;;
59024;SDS011;44806;48.008;13.666;2022-12-18T01:37:41;38.80;;;15.77;;
59024;SDS011;44806;48.008;13.666;2022-12-18T01:40:12;30.42;;;13.40;;
59024;SDS011;44806;48.008;13.666;2022-12-18T01:42:42;32.13;;;13.45;;
59024;SDS011;44806;48.008;13.666;2022-12-18T01:45:26;28.48;;;13.70;;
59024;SDS011;44806;48.008;13.666;2022-12-18T01:48:01;40.63;;;16.03;;
59024;SDS011;44806;48.008;13.666;2022-12-18T01:50:42;35.08;;;15.95;;
59024;SDS011;44806;48.008;13.666;2022-12-18T01:53:17;35.20;;;12.55;;
59024;SDS011;44806;48.008;13.666;2022-12-18T01:55:53;27.65;;;12.27;;
59024;SDS011;44806;48.008;13.666;2022-12-18T01:58:30;29.35;;;11.75;;
59024;SDS011;44806;48.008;13.666;2022-12-18T02:01:20;25.63;;;11.95;;
59024;SDS011;44806;48.008;13.666;2022-12-18T02:03:50;38.88;;;13.63;;
59024;SDS011;44806;48.008;13.666;2022-12-18T02:06:23;32.00;;;12.23;;
59024;SDS011;44806;48.008;13.666;2022-12-18T02:09:10;33.00;;;14.40;;
59024;SDS011;44806;48.008;13.666;2022-12-18T02:11:56;35.00;;;14.18;;
59024;SDS011;44806;48.008;13.666;2022-12-18T02:14:41;34.65;;;14.30;;
59024;SDS011;44806;48.008;13.666;2022-12-18T02:17:23;43.47;;;17.45;;
59024;SDS011;44806;48.008;13.666;2022-12-18T02:20:09;26.33;;;13.88;;
59024;SDS011;44806;48.008;13.666;2022-12-18T02:22:55;31.08;;;14.23;;
59024;SDS011;44806;48.008;13.666;2022-12-18T02:25:51;39.15;;;15.30;;
59024;SDS011;44806;48.008;13.666;2022-12-18T02:28:33;40.95;;;15.85;;
59024;SDS011;44806;48.008;13.666;2022-12-18T02:31:15;44.58;;;18.20;;
59024;SDS011;44806;48.008;13.666;2022-12-18T02:34:02;40.60;;;14.77;;
59024;SDS011;44806;48.008;13.666;2022-12-18T02:36:41;38.10;;;16.42;;
59024;SDS011;44806;48.008;13.666;2022-12-18T02:39:19;31.88;;;13.43;;
59024;SDS011;44806;48.008;13.666;2022-12-18T02:41:55;40.15;;;17.67;;
59024;SDS011;44806;48.008;13.666;2022-12-18T02:44:44;39.90;;;17.67;;
59024;SDS011;44806;48.008;13.666;2022-12-18T02:47:30;37.25;;;14.57;;
59024;SDS011;44806;48.008;13.666;2022-12-18T02:50:10;36.97;;;13.85;;
59024;SDS011;44806;48.008;13.666;2022-12-18T02:52:53;29.85;;;13.13;;
59024;SDS011;44806;48.008;13.666;2022-12-18T02:55:32;42.60;;;17.45;;
59024;SDS011;44806;48.008;13.666;2022-12-18T02:58:13;36.67;;;16.50;;
59024;SDS011;44806;48.008;13.666;2022-12-18T03:00:58;40.65;;;14.15;;
59024;SDS011;44806;48.008;13.666;2022-12-18T03:03:38;36.10;;;14.52;;
59024;SDS011;44806;48.008;13.666;2022-12-18T03:06:19;37.63;;;18.00;;
59024;SDS011;44806;48.008;13.666;2022-12-18T03:09:02;34.45;;;16.00;;
59024;SDS011;44806;48.008;13.666;2022-12-18T03:11:46;38.08;;;15.43;;
59024;SDS011;44806;48.008;13.666;2022-12-18T03:14:36;36.50;;;17.08;;
59024;SDS011;44806;48.008;13.666;2022-12-18T03:17:07;46.90;;;17.90;;
59024;SDS011;44806;48.008;13.666;2022-12-18T03:19:49;36.80;;;15.95;;
59024;SDS011;44806;48.008;13.666;2022-12-18T03:22:20;41.28;;;17.02;;
59024;SDS011;44806;48.008;13.666;2022-12-18T03:24:54;39.75;;;17.02;;
59024;SDS011;44806;48.008;13.666;2022-12-18T03:27:35;33.20;;;15.15;;
59024;SDS011;44806;48.008;13.666;2022-12-18T03:30:16;41.17;;;16.05;;
59024;SDS011;44806;48.008;13.666;2022-12-18T03:32:53;31.23;;;12.70;;
59024;SDS011;44806;48.008;13.666;2022-12-18T03:35:38;35.10;;;15.13;;
59024;SDS011;44806;48.008;13.666;2022-12-18T03:38:18;37.38;;;15.18;;
59024;SDS011;44806;48.008;13.666;2022-12-18T03:40:54;36.20;;;15.35;;
59024;SDS011;44806;48.008;13.666;2022-12-18T03:43:31;41.83;;;16.90;;
59024;SDS011;44806;48.008;13.666;2022-12-18T03:46:20;40.63;;;15.70;;
59024;SDS011;44806;48.008;13.666;2022-12-18T03:48:59;35.42;;;16.48;;
59024;SDS011;44806;48.008;13.666;2022-12-18T03:51:37;35.13;;;14.90;;
59024;SDS011;44806;48.008;13.666;2022-12-18T03:54:19;33.47;;;15.95;;
59024;SDS011;44806;48.008;13.666;2022-12-18T03:56:55;36.15;;;16.23;;
59024;SDS011;44806;48.008;13.666;2022-12-18T03:59:35;33.03;;;14.98;;
59024;SDS011;44806;48.008;13.666;2022-12-18T04:02:21;39.72;;;14.38;;
59024;SDS011;44806;48.008;13.666;2022-12-18T04:04:55;37.33;;;15.25;;
59024;SDS011;44806;48.008;13.666;2022-12-18T04:07:35;33.63;;;16.00;;
59024;SDS011;44806;48.008;13.666;2022-12-18T04:10:07;35.80;;;15.65;;
59024;SDS011;44806;48.008;13.666;2022-12-18T04:12:49;33.85;;;13.95;;
59024;SDS011;44806;48.008;13.666;2022-12-18T04:15:25;31.90;;;14.00;;
59024;SDS011;44806;48.008;13.666;2022-12-18T04:18:10;29.55;;;13.65;;
59024;SDS011;44806;48.008;13.666;2022-12-18T04:20:41;31.05;;;13.95;;
59024;SDS011;44806;48.008;13.666;2022-12-18T04:23:12;31.20;;;15.27;;
59024;SDS011;44806;48.008;13.666;2022-12-18T04:25:44;33.33;;;12.13;;
59024;SDS011;44806;48.008;13.666;2022-12-18T04:28:26;31.58;;;12.95;;
59024;SDS011;44806;48.008;13.666;2022-12-18T04:30:58;33.53;;;11.85;;
59024;SDS011;44806;48.008;13.666;2022-12-18T04:33:37;31.65;;;12.10;;
59024;SDS011;44806;48.008;13.666;2022-12-18T04:36:18;30.98;;;12.63;;
59024;SDS011;44806;48.008;13.666;2022-12-18T04:38:54;34.15;;;13.93;;
59024;SDS011;44806;48.008;13.666;2022-12-18T04:41:31;34.03;;;13.10;;
59024;SDS011;44806;48.008;13.666;2022-12-18T04:44:07;37.25;;;16.02;;
59024;SDS011;44806;48.008;13.666;2022-12-18T04:46:43;41.33;;;18.02;;
59024;SDS011;44806;48.008;13.666;2022-12-18T04:49:21;36.88;;;13.40;;
59024;SDS011;44806;48.008;13.666;2022-12-18T04:52:00;43.17;;;18.88;;
59024;SDS011;44806;48.008;13.666;2022-12-18T04:54:40;45.95;;;18.13;;
59024;SDS011;44806;48.008;13.666;2022-12-18T04:57:15;37.95;;;14.85;;
59024;SDS011;44806;48.008;13.666;2022-12-18T04:59:59;37.22;;;15.55;;
59024;SDS011;44806;48.008;13.666;2022-12-18T05:02:27;38.80;;;16.90;;
59024;SDS011;44806;48.008;13.666;2022-12-18T05:05:07;40.92;;;16.08;;
59024;SDS011;44806;48.008;13.666;2022-12-18T05:07:40;58.05;;;17.13;;
59024;SDS011;44806;48.008;13.666;2022-12-18T05:10:16;40.17;;;14.05;;
59024;SDS011;44806;48.008;13.666;2022-12-18T05:12:55;37.35;;;14.40;;
59024;SDS011;44806;48.008;13.666;2022-12-18T05:15:28;34.85;;;15.77;;
59024;SDS011;44806;48.008;13.666;2022-12-18T05:18:04;48.47;;;18.27;;
59024;SDS011;44806;48.008;13.666;2022-12-18T05:20:36;38.30;;;14.73;;
59024;SDS011;44806;48.008;13.666;2022-12-18T05:23:06;45.63;;;17.35;;
59024;SDS011;44806;48.008;13.666;2022-12-18T05:25:46;42.88;;;17.42;;
59024;SDS011;44806;48.008;13.666;2022-12-18T05:28:20;38.83;;;14.80;;
59024;SDS011;44806;48.008;13.666;2022-12-18T05:31:01;47.90;;;18.05;;
59024;SDS011;44806;48.008;13.666;2022-12-18T05:33:30;44.10;;;15.60;;
59024;SDS011;44806;48.008;13.666;2022-12-18T05:36:08;40.50;;;16.30;;
59024;SDS011;44806;48.008;13.666;2022-12-18T05:38:49;44.80;;;17.25;;
59024;SDS011;44806;48.008;13.666;2022-12-18T05:41:27;42.97;;;16.10;;
59024;SDS011;44806;48.008;13.666;2022-12-18T05:44:01;36.30;;;13.52;;
59024;SDS011;44806;48.008;13.666;2022-12-18T05:46:35;40.58;;;15.52;;
59024;SDS011;44806;48.008;13.666;2022-12-18T05:49:11;43.42;;;14.93;;
59024;SDS011;44806;48.008;13.666;2022-12-18T05:51:46;45.95;;;15.90;;
59024;SDS011;44806;48.008;13.666;2022-12-18T05:54:21;39.10;;;13.80;;
59024;SDS011;44806;48.008;13.666;2022-12-18T05:56:55;33.22;;;14.02;;
59024;SDS011;44806;48.008;13.666;2022-12-18T05:59:26;32.72;;;13.00;;
59024;SDS011;44806;48.008;13.666;2022-12-18T06:01:57;35.35;;;12.38;;
59024;SDS011;44806;48.008;13.666;2022-12-18T06:04:28;37.03;;;16.02;;
59024;SDS011;44806;48.008;13.666;2022-12-18T06:07:01;30.80;;;12.07;;
59024;SDS011;44806;48.008;13.666;2022-12-18T06:09:39;29.60;;;12.75;;
59024;SDS011;44806;48.008;13.666;2022-12-18T06:12:18;30.35;;;13.13;;
59024;SDS011;44806;48.008;13.666;2022-12-18T06:14:51;38.17;;;14.98;;
59024;SDS011;44806;48.008;13.666;2022-12-18T06:17:20;36.78;;;15.75;;
59024;SDS011;44806;48.008;13.666;2022-12-18T06:19:57;41.92;;;16.27;;
59024;SDS011;44806;48.008;13.666;2022-12-18T06:22:27;37.90;;;15.43;;
59024;SDS011;44806;48.008;13.666;2022-12-18T06:25:03;36.90;;;16.25;;
59024;SDS011;44806;48.008;13.666;2022-12-18T06:27:37;35.35;;;18.08;;
59024;SDS011;44806;48.008;13.666;2022-12-18T06:30:14;37.35;;;15.73;;
59024;SDS011;44806;48.008;13.666;2022-12-18T06:32:54;39.00;;;14.23;;
59024;SDS011;44806;48.008;13.666;2022-12-18T06:35:26;31.98;;;15.15;;
59024;SDS011;44806;48.008;13.666;2022-12-18T06:37:57;36.63;;;13.77;;
59024;SDS011;44806;48.008;13.666;2022-12-18T06:40:34;41.72;;;15.05;;
59024;SDS011;44806;48.008;13.666;2022-12-18T06:43:02;36.25;;;16.67;;
59024;SDS011;44806;48.008;13.666;2022-12-18T06:45:35;33.47;;;14.98;;
59024;SDS011;44806;48.008;13.666;2022-12-18T06:48:05;36.25;;;13.70;;
59024;SDS011;44806;48.008;13.666;2022-12-18T06:50:49;30.40;;;14.23;;
59024;SDS011;44806;48.008;13.666;2022-12-18T06:53:29;28.48;;;13.05;;
59024;SDS011;44806;48.008;13.666;2022-12-18T06:56:05;32.38;;;13.27;;
59024;SDS011;44806;48.008;13.666;2022-12-18T06:58:37;30.73;;;14.65;;
59024;SDS011;44806;48.008;13.666;2022-12-18T07:01:06;35.90;;;14.00;;
59024;SDS011;44806;48.008;13.666;2022-12-18T07:03:41;39.83;;;13.97;;
59024;SDS011;44806;48.008;13.666;2022-12-18T07:06:19;25.08;;;12.52;;
59024;SDS011;44806;48.008;13.666;2022-12-18T07:08:53;33.15;;;12.82;;
59024;SDS011;44806;48.008;13.666;2022-12-18T07:11:26;33.97;;;12.82;;
59024;SDS011;44806;48.008;13.666;2022-12-18T07:13:59;32.28;;;13.63;;
59024;SDS011;44806;48.008;13.666;2022-12-18T07:16:37;35.38;;;12.27;;
59024;SDS011;44806;48.008;13.666;2022-12-18T07:19:08;28.63;;;10.95;;
59024;SDS011;44806;48.008;13.666;2022-12-18T07:21:45;28.70;;;11.82;;
59024;SDS011;44806;48.008;13.666;2022-12-18T07:24:17;31.30;;;13.77;;
59024;SDS011;44806;48.008;13.666;2022-12-18T07:26:46;29.38;;;9.40;;
59024;SDS011;44806;48.008;13.666;2022-12-18T07:29:20;26.60;;;10.75;;
59024;SDS011;44806;48.008;13.666;2022-12-18T07:31:58;28.33;;;11.52;;
59024;SDS011;44806;48.008;13.666;2022-12-18T07:34:30;33.63;;;11.40;;
59024;SDS011;44806;48.008;13.666;2022-12-18T07:39:33;32.15;;;15.00;;
59024;SDS011;44806;48.008;13.666;2022-12-18T07:42:01;34.40;;;12.75;;
59024;SDS011;44806;48.008;13.666;2022-12-18T07:44:49;35.53;;;13.70;;
59024;SDS011;44806;48.008;13.666;2022-12-18T07:47:28;34.65;;;12.82;;
59024;SDS011;44806;48.008;13.666;2022-12-18T07:50:03;35.00;;;14.02;;
59024;SDS011;44806;48.008;13.666;2022-12-18T07:52:39;32.58;;;12.50;;
59024;SDS011;44806;48.008;13.666;2022-12-18T07:55:12;32.13;;;12.35;;
59024;SDS011;44806;48.008;13.666;2022-12-18T07:57:47;29.08;;;12.35;;
59024;SDS011;44806;48.008;13.666;2022-12-18T08:00:18;35.88;;;14.23;;
59024;SDS011;44806;48.008;13.666;2022-12-18T08:02:57;36.08;;;14.68;;
59024;SDS011;44806;48.008;13.666;2022-12-18T08:05:27;32.45;;;12.95;;
59024;SDS011;44806;48.008;13.666;2022-12-18T08:08:02;36.83;;;12.90;;
59024;SDS011;44806;48.008;13.666;2022-12-18T08:10:34;36.10;;;14.85;;
59024;SDS011;44806;48.008;13.666;2022-12-18T08:13:09;38.90;;;14.45;;
59024;SDS011;44806;48.008;13.666;2022-12-18T08:15:39;30.83;;;12.35;;
59024;SDS011;44806;48.008;13.666;2022-12-18T08:18:25;32.50;;;14.75;;
59024;SDS011;44806;48.008;13.666;2022-12-18T08:21:09;29.67;;;13.00;;
59024;SDS011;44806;48.008;13.666;2022-12-18T08:23:41;28.67;;;12.00;;
59024;SDS011;44806;48.008;13.666;2022-12-18T08:26:19;40.55;;;13.77;;
59024;SDS011;44806;48.008;13.666;2022-12-18T08:28:57;35.30;;;15.43;;
59024;SDS011;44806;48.008;13.666;2022-12-18T08:31:29;28.50;;;12.38;;
59024;SDS011;44806;48.008;13.666;2022-12-18T08:34:01;36.15;;;12.55;;
59024;SDS011;44806;48.008;13.666;2022-12-18T08:36:39;29.42;;;14.10;;
59024;SDS011;44806;48.008;13.666;2022-12-18T08:39:07;27.05;;;12.80;;
59024;SDS011;44806;48.008;13.666;2022-12-18T08:41:43;41.05;;;14.30;;
59024;SDS011;44806;48.008;13.666;2022-12-18T08:44:36;40.25;;;12.13;;
59024;SDS011;44806;48.008;13.666;2022-12-18T08:47:11;26.65;;;12.15;;
59024;SDS011;44806;48.008;13.666;2022-12-18T08:49:45;33.92;;;12.80;;
59024;SDS011;44806;48.008;13.666;2022-12-18T08:52:18;32.15;;;12.25;;
59024;SDS011;44806;48.008;13.666;2022-12-18T08:54:49;32.65;;;12.73;;
59024;SDS011;44806;48.008;13.666;2022-12-18T08:57:22;28.27;;;11.52;;
59024;SDS011;44806;48.008;13.666;2022-12-18T09:00:03;28.15;;;11.35;;
59024;SDS011;44806;48.008;13.666;2022-12-18T09:02:38;34.55;;;13.27;;
59024;SDS011;44806;48.008;13.666;2022-12-18T09:05:16;47.75;;;19.67;;
59024;SDS011;44806;48.008;13.666;2022-12-18T09:07:56;35.38;;;13.32;;
59024;SDS011;44806;48.008;13.666;2022-12-18T09:10:32;30.45;;;12.10;;
59024;SDS011;44806;48.008;13.666;2022-12-18T09:13:08;33.80;;;14.80;;
59024;SDS011;44806;48.008;13.666;2022-12-18T09:15:43;36.13;;;14.75;;
59024;SDS011;44806;48.008;13.666;2022-12-18T09:18:20;29.92;;;12.48;;
59024;SDS011;44806;48.008;13.666;2022-12-18T09:20:52;36.00;;;15.00;;
59024;SDS011;44806;48.008;13.666;2022-12-18T09:23:26;30.75;;;12.35;;
59024;SDS011;44806;48.008;13.666;2022-12-18T09:26:03;26.45;;;13.40;;
59024;SDS011;44806;48.008;13.666;2022-12-18T09:31:21;32.13;;;15.10;;
59024;SDS011;44806;48.008;13.666;2022-12-18T09:33:53;30.35;;;12.73;;
59024;SDS011;44806;48.008;13.666;2022-12-18T09:36:28;44.97;;;15.18;;
59024;SDS011;44806;48.008;13.666;2022-12-18T09:39:07;33.95;;;15.70;;
59024;SDS011;44806;48.008;13.666;2022-12-18T09:41:41;44.88;;;14.98;;
59024;SDS011;44806;48.008;13.666;2022-12-18T09:44:25;29.05;;;13.85;;
59024;SDS011;44806;48.008;13.666;2022-12-18T09:47:02;34.40;;;12.55;;
59024;SDS011;44806;48.008;13.666;2022-12-18T09:49:40;36.80;;;14.98;;
59024;SDS011;44806;48.008;13.666;2022-12-18T09:52:17;39.38;;;15.05;;
59024;SDS011;44806;48.008;13.666;2022-12-18T09:54:56;40.95;;;17.70;;
59024;SDS011;44806;48.008;13.666;2022-12-18T09:57:33;28.90;;;13.27;;
59024;SDS011;44806;48.008;13.666;2022-12-18T10:00:21;32.65;;;13.25;;
59024;SDS011;44806;48.008;13.666;2022-12-18T10:02:58;27.67;;;11.88;;
59024;SDS011;44806;48.008;13.666;2022-12-18T10:05:46;27.33;;;12.27;;
59024;SDS011;44806;48.008;13.666;2022-12-18T10:08:32;35.60;;;13.40;;
59024;SDS011;44806;48.008;13.666;2022-12-18T10:11:17;34.03;;;12.63;;
59024;SDS011;44806;48.008;13.666;2022-12-18T10:14:06;31.37;;;12.07;;
59024;SDS011;44806;48.008;13.666;2022-12-18T10:16:46;28.25;;;11.65;;
59024;SDS011;44806;48.008;13.666;2022-12-18T10:19:35;27.52;;;12.52;;
59024;SDS011;44806;48.008;13.666;2022-12-18T10:22:21;28.20;;;12.40;;
59024;SDS011;44806;48.008;13.666;2022-12-18T10:25:05;31.05;;;14.00;;
59024;SDS011;44806;48.008;13.666;2022-12-18T10:27:51;29.40;;;14.43;;
59024;SDS011;44806;48.008;13.666;2022-12-18T10:30:31;25.13;;;10.85;;
59024;SDS011;44806;48.008;13.666;2022-12-18T10:33:05;23.60;;;11.82;;
59024;SDS011;44806;48.008;13.666;2022-12-18T10:35:46;25.20;;;10.35;;
59024;SDS011;44806;48.008;13.666;2022-12-18T10:38:25;28.15;;;11.77;;
59024;SDS011;44806;48.008;13.666;2022-12-18T10:41:01;30.35;;;12.18;;
59024;SDS011;44806;48.008;13.666;2022-12-18T10:43:37;26.05;;;11.43;;
59024;SDS011;44806;48.008;13.666;2022-12-18T10:46:14;27.42;;;11.60;;
59024;SDS011;44806;48.008;13.666;2022-12-18T10:48:56;30.65;;;11.77;;
59024;SDS011;44806;48.008;13.666;2022-12-18T10:51:26;30.83;;;12.60;;
59024;SDS011;44806;48.008;13.666;2022-12-18T10:54:03;30.55;;;12.60;;
59024;SDS011;44806;48.008;13.666;2022-12-18T10:56:36;30.98;;;12.25;;
59024;SDS011;44806;48.008;13.666;2022-12-18T10:59:12;32.85;;;12.70;;
59024;SDS011;44806;48.008;13.666;2022-12-18T11:01:50;26.95;;;12.45;;
59024;SDS011;44806;48.008;13.666;2022-12-18T11:04:30;24.95;;;10.73;;
59024;SDS011;44806;48.008;13.666;2022-12-18T11:07:08;22.98;;;9.88;;
59024;SDS011;44806;48.008;13.666;2022-12-18T11:09:42;21.42;;;8.98;;
59024;SDS011;44806;48.008;13.666;2022-12-18T11:12:32;26.77;;;8.73;;
59024;SDS011;44806;48.008;13.666;2022-12-18T11:15:06;23.45;;;9.75;;
59024;SDS011;44806;48.008;13.666;2022-12-18T11:17:47;22.75;;;10.15;;
59024;SDS011;44806;48.008;13.666;2022-12-18T11:20:34;24.23;;;11.35;;
59024;SDS011;44806;48.008;13.666;2022-12-18T11:23:03;28.02;;;11.30;;
59024;SDS011;44806;48.008;13.666;2022-12-18T11:28:39;31.65;;;11.43;;
59024;SDS011;44806;48.008;13.666;2022-12-18T11:31:29;25.23;;;10.70;;
59024;SDS011;44806;48.008;13.666;2022-12-18T11:34:04;19.52;;;10.10;;
59024;SDS011;44806;48.008;13.666;2022-12-18T11:36:45;23.08;;;9.98;;
59024;SDS011;44806;48.008;13.666;2022-12-18T11:39:24;25.73;;;10.45;;
59024;SDS011;44806;48.008;13.666;2022-12-18T11:42:04;28.13;;;10.80;;
59024;SDS011;44806;48.008;13.666;2022-12-18T11:44:45;29.90;;;9.63;;
59024;SDS011;44806;48.008;13.666;2022-12-18T11:47:27;23.60;;;8.25;;
59024;SDS011;44806;48.008;13.666;2022-12-18T11:50:14;17.70;;;9.05;;
59024;SDS011;44806;48.008;13.666;2022-12-18T11:52:58;27.15;;;11.48;;
59024;SDS011;44806;48.008;13.666;2022-12-18T11:55:33;23.83;;;10.07;;
59024;SDS011;44806;48.008;13.666;2022-12-18T11:58:13;22.90;;;9.35;;
59024;SDS011;44806;48.008;13.666;2022-12-18T12:01:08;26.63;;;10.40;;
59024;SDS011;44806;48.008;13.666;2022-12-18T12:03:59;22.88;;;11.27;;
59024;SDS011;44806;48.008;13.666;2022-12-18T12:06:53;20.98;;;11.27;;
59024;SDS011;44806;48.008;13.666;2022-12-18T12:12:23;23.02;;;12.00;;
59024;SDS011;44806;48.008;13.666;2022-12-18T12:15:20;26.67;;;11.95;;
59024;SDS011;44806;48.008;13.666;2022-12-18T12:18:05;24.00;;;11.85;;
59024;SDS011;44806;48.008;13.666;2022-12-18T12:20:56;19.52;;;10.65;;
59024;SDS011;44806;48.008;13.666;2022-12-18T12:23:33;20.98;;;10.00;;
59024;SDS011;44806;48.008;13.666;2022-12-18T12:26:16;24.90;;;12.48;;
59024;SDS011;44806;48.008;13.666;2022-12-18T12:28:58;15.05;;;8.57;;
59024;SDS011;44806;48.008;13.666;2022-12-18T12:31:42;22.40;;;11.25;;
59024;SDS011;44806;48.008;13.666;2022-12-18T12:34:29;31.33;;;12.63;;
59024;SDS011;44806;48.008;13.666;2022-12-18T12:37:17;23.20;;;10.27;;
59024;SDS011;44806;48.008;13.666;2022-12-18T12:39:56;21.88;;;11.00;;
59024;SDS011;44806;48.008;13.666;2022-12-18T12:42:34;30.08;;;12.13;;
59024;SDS011;44806;48.008;13.666;2022-12-18T12:45:30;29.92;;;13.52;;
59024;SDS011;44806;48.008;13.666;2022-12-18T12:48:05;27.92;;;11.90;;
59024;SDS011;44806;48.008;13.666;2022-12-18T12:50:43;26.80;;;12.10;;
59024;SDS011;44806;48.008;13.666;2022-12-18T12:53:31;26.07;;;9.07;;
59024;SDS011;44806;48.008;13.666;2022-12-18T12:56:07;22.67;;;10.30;;
59024;SDS011;44806;48.008;13.666;2022-12-18T12:58:54;20.10;;;10.10;;
59024;SDS011;44806;48.008;13.666;2022-12-18T13:01:35;27.35;;;12.07;;
59024;SDS011;44806;48.008;13.666;2022-12-18T13:04:19;23.77;;;10.77;;
59024;SDS011;44806;48.008;13.666;2022-12-18T13:07:00;24.15;;;9.80;;
59024;SDS011;44806;48.008;13.666;2022-12-18T13:09:37;31.08;;;11.52;;
59024;SDS011;44806;48.008;13.666;2022-12-18T13:13:00;24.95;;;12.55;;
59024;SDS011;44806;48.008;13.666;2022-12-18T13:15:36;27.95;;;13.27;;
59024;SDS011;44806;48.008;13.666;2022-12-18T13:18:19;27.55;;;10.95;;
59024;SDS011;44806;48.008;13.666;2022-12-18T13:20:50;26.95;;;11.60;;
59024;SDS011;44806;48.008;13.666;2022-12-18T13:23:35;23.48;;;12.32;;
59024;SDS011;44806;48.008;13.666;2022-12-18T13:26:29;25.67;;;11.07;;
59024;SDS011;44806;48.008;13.666;2022-12-18T13:29:09;30.45;;;12.18;;
59024;SDS011;44806;48.008;13.666;2022-12-18T13:38:23;18.45;;;8.48;;
59024;SDS011;44806;48.008;13.666;2022-12-18T13:41:04;25.85;;;9.95;;
59024;SDS011;44806;48.008;13.666;2022-12-18T13:43:54;19.75;;;11.00;;
59024;SDS011;44806;48.008;13.666;2022-12-18T13:46:44;24.33;;;12.23;;
59024;SDS011;44806;48.008;13.666;2022-12-18T13:49:26;30.13;;;10.80;;
59024;SDS011;44806;48.008;13.666;2022-12-18T13:52:15;26.55;;;12.93;;
59024;SDS011;44806;48.008;13.666;2022-12-18T13:55:06;20.13;;;10.82;;
59024;SDS011;44806;48.008;13.666;2022-12-18T13:57:43;26.73;;;11.80;;
59024;SDS011;44806;48.008;13.666;2022-12-18T14:00:23;23.63;;;12.40;;
59024;SDS011;44806;48.008;13.666;2022-12-18T14:02:58;30.48;;;13.07;;
59024;SDS011;44806;48.008;13.666;2022-12-18T14:05:34;23.80;;;11.57;;
59024;SDS011;44806;48.008;13.666;2022-12-18T14:08:12;26.95;;;12.75;;
59024;SDS011;44806;48.008;13.666;2022-12-18T14:10:45;31.20;;;12.85;;
59024;SDS011;44806;48.008;13.666;2022-12-18T14:13:23;25.95;;;12.43;;
59024;SDS011;44806;48.008;13.666;2022-12-18T14:15:56;24.88;;;10.85;;
59024;SDS011;44806;48.008;13.666;2022-12-18T14:18:31;26.92;;;11.35;;
59024;SDS011;44806;48.008;13.666;2022-12-18T14:21:15;28.97;;;11.90;;
59024;SDS011;44806;48.008;13.666;2022-12-18T14:26:42;33.95;;;13.23;;
59024;SDS011;44806;48.008;13.666;2022-12-18T14:29:21;29.00;;;14.02;;
59024;SDS011;44806;48.008;13.666;2022-12-18T14:32:10;26.27;;;13.35;;
59024;SDS011;44806;48.008;13.666;2022-12-18T14:34:47;35.15;;;13.77;;
59024;SDS011;44806;48.008;13.666;2022-12-18T14:37:22;31.90;;;13.02;;
59024;SDS011;44806;48.008;13.666;2022-12-18T14:39:57;31.00;;;13.45;;
59024;SDS011;44806;48.008;13.666;2022-12-18T14:42:33;25.48;;;11.07;;
59024;SDS011;44806;48.008;13.666;2022-12-18T14:48:15;30.30;;;14.18;;
59024;SDS011;44806;48.008;13.666;2022-12-18T14:50:58;26.42;;;13.07;;
59024;SDS011;44806;48.008;13.666;2022-12-18T14:53:36;30.13;;;14.13;;
59024;SDS011;44806;48.008;13.666;2022-12-18T14:56:15;34.33;;;14.07;;
59024;SDS011;44806;48.008;13.666;2022-12-18T14:58:50;25.58;;;12.25;;
59024;SDS011;44806;48.008;13.666;2022-12-18T15:01:28;31.02;;;13.55;;
59024;SDS011;44806;48.008;13.666;2022-12-18T15:04:20;28.27;;;14.32;;
59024;SDS011;44806;48.008;13.666;2022-12-18T15:09:43;36.88;;;15.48;;
59024;SDS011;44806;48.008;13.666;2022-12-18T15:12:44;36.20;;;15.02;;
59024;SDS011;44806;48.008;13.666;2022-12-18T15:15:51;32.38;;;12.05;;
59024;SDS011;44806;48.008;13.666;2022-12-18T15:18:31;29.60;;;12.93;;
59024;SDS011;44806;48.008;13.666;2022-12-18T15:21:11;24.20;;;11.70;;
59024;SDS011;44806;48.008;13.666;2022-12-18T15:23:50;30.45;;;13.15;;
59024;SDS011;44806;48.008;13.666;2022-12-18T15:26:35;33.60;;;14.57;;
59024;SDS011;44806;48.008;13.666;2022-12-18T15:29:17;36.10;;;13.57;;
59024;SDS011;44806;48.008;13.666;2022-12-18T15:32:03;32.85;;;14.25;;
59024;SDS011;44806;48.008;13.666;2022-12-18T15:34:40;28.02;;;14.00;;
59024;SDS011;44806;48.008;13.666;2022-12-18T15:37:11;26.85;;;12.65;;
59024;SDS011;44806;48.008;13.666;2022-12-18T15:39:45;35.30;;;14.10;;
59024;SDS011;44806;48.008;13.666;2022-12-18T15:42:23;37.50;;;14.95;;